sensor_id;sensor_type;location;lat;lon;timestamp;temperature;humidity
11736;DHT22;5924;51.398;7.088;2024-02-04T00:00:34;9.30;99.90
11736;DHT22;5924;51.398;7.088;2024-02-04T00:03:00;9.30;99.90
11736;DHT22;5924;51.398;7.088;2024-02-04T00:05:26;9.30;99.90
11736;DHT22;5924;51.398;7.088;2024-02-04T00:07:51;9.30;99.90
11736;DHT22;5924;51.398;7.088;2024-02-04T00:10:17;9.30;99.90
11736;DHT22;5924;51.398;7.088;2024-02-04T00:12:44;9.20;99.90
11736;DHT22;5924;51.398;7.088;2024-02-04T00:15:10;9.30;99.90
11736;DHT22;5924;51.398;7.088;2024-02-04T00:17:35;9.20;99.90
11736;DHT22;5924;51.398;7.088;2024-02-04T00:20:02;9.20;99.90
11736;DHT22;5924;51.398;7.088;2024-02-04T00:22:34;9.20;99.90
11736;DHT22;5924;51.398;7.088;2024-02-04T00:25:00;9.20;99.90
11736;DHT22;5924;51.398;7.088;2024-02-04T00:27:33;9.20;99.90
11736;DHT22;5924;51.398;7.088;2024-02-04T00:29:59;9.20;99.90
11736;DHT22;5924;51.398;7.088;2024-02-04T00:32:26;9.20;99.90
11736;DHT22;5924;51.398;7.088;2024-02-04T00:34:52;9.20;99.90
11736;DHT22;5924;51.398;7.088;2024-02-04T00:37:18;9.20;99.90
11736;DHT22;5924;51.398;7.088;2024-02-04T00:39:44;9.20;99.90
11736;DHT22;5924;51.398;7.088;2024-02-04T00:42:09;9.20;99.90
11736;DHT22;5924;51.398;7.088;2024-02-04T00:44:36;9.20;99.90
11736;DHT22;5924;51.398;7.088;2024-02-04T00:47:01;9.20;99.90
11736;DHT22;5924;51.398;7.088;2024-02-04T00:49:27;9.20;99.90
11736;DHT22;5924;51.398;7.088;2024-02-04T00:51:53;9.20;99.90
11736;DHT22;5924;51.398;7.088;2024-02-04T00:54:19;9.20;99.90
11736;DHT22;5924;51.398;7.088;2024-02-04T00:56:45;9.20;99.90
11736;DHT22;5924;51.398;7.088;2024-02-04T00:59:10;9.20;99.90
11736;DHT22;5924;51.398;7.088;2024-02-04T01:01:37;9.10;99.90
11736;DHT22;5924;51.398;7.088;2024-02-04T01:04:03;9.20;99.90
11736;DHT22;5924;51.398;7.088;2024-02-04T01:06:29;9.10;99.90
11736;DHT22;5924;51.398;7.088;2024-02-04T01:08:56;9.20;99.90
11736;DHT22;5924;51.398;7.088;2024-02-04T01:11:22;9.20;99.90
11736;DHT22;5924;51.398;7.088;2024-02-04T01:13:47;9.20;99.90
11736;DHT22;5924;51.398;7.088;2024-02-04T01:16:13;9.10;99.90
11736;DHT22;5924;51.398;7.088;2024-02-04T01:18:39;9.10;99.90
11736;DHT22;5924;51.398;7.088;2024-02-04T01:21:04;9.40;99.90
11736;DHT22;5924;51.398;7.088;2024-02-04T01:23:30;9.10;99.90
11736;DHT22;5924;51.398;7.088;2024-02-04T01:25:56;9.10;99.90
11736;DHT22;5924;51.398;7.088;2024-02-04T01:28:22;9.10;99.90
11736;DHT22;5924;51.398;7.088;2024-02-04T01:30:47;9.10;99.90
11736;DHT22;5924;51.398;7.088;2024-02-04T01:33:13;9.10;99.90
11736;DHT22;5924;51.398;7.088;2024-02-04T01:35:39;9.10;99.90
11736;DHT22;5924;51.398;7.088;2024-02-04T01:38:04;9.10;99.90
11736;DHT22;5924;51.398;7.088;2024-02-04T01:40:30;9.10;99.90
11736;DHT22;5924;51.398;7.088;2024-02-04T01:42:56;9.10;99.90
11736;DHT22;5924;51.398;7.088;2024-02-04T01:45:22;9.10;99.90
11736;DHT22;5924;51.398;7.088;2024-02-04T01:47:48;9.10;99.90
11736;DHT22;5924;51.398;7.088;2024-02-04T01:50:15;9.10;99.90
11736;DHT22;5924;51.398;7.088;2024-02-04T01:52:42;9.20;99.90
11736;DHT22;5924;51.398;7.088;2024-02-04T01:55:09;9.20;99.90
11736;DHT22;5924;51.398;7.088;2024-02-04T01:57:35;9.20;99.90
11736;DHT22;5924;51.398;7.088;2024-02-04T02:00:01;9.20;99.90
11736;DHT22;5924;51.398;7.088;2024-02-04T02:02:28;9.20;99.90
11736;DHT22;5924;51.398;7.088;2024-02-04T02:04:54;9.20;99.90
11736;DHT22;5924;51.398;7.088;2024-02-04T02:07:20;9.20;99.90
11736;DHT22;5924;51.398;7.088;2024-02-04T02:09:47;9.20;99.90
11736;DHT22;5924;51.398;7.088;2024-02-04T02:13:14;9.20;99.90
11736;DHT22;5924;51.398;7.088;2024-02-04T02:15:28;9.30;99.90
11736;DHT22;5924;51.398;7.088;2024-02-04T02:23:34;9.30;99.90
11736;DHT22;5924;51.398;7.088;2024-02-04T02:26:00;9.30;99.90
11736;DHT22;5924;51.398;7.088;2024-02-04T02:28:26;9.30;99.90
11736;DHT22;5924;51.398;7.088;2024-02-04T02:30:52;9.30;99.90
11736;DHT22;5924;51.398;7.088;2024-02-04T02:33:18;9.30;99.90
11736;DHT22;5924;51.398;7.088;2024-02-04T02:35:45;9.30;99.90
11736;DHT22;5924;51.398;7.088;2024-02-04T02:38:36;9.40;99.90
11736;DHT22;5924;51.398;7.088;2024-02-04T02:41:04;9.30;99.90
11736;DHT22;5924;51.398;7.088;2024-02-04T02:43:32;9.30;99.90
11736;DHT22;5924;51.398;7.088;2024-02-04T02:45:59;9.30;99.90
11736;DHT22;5924;51.398;7.088;2024-02-04T02:48:25;9.30;99.90
11736;DHT22;5924;51.398;7.088;2024-02-04T02:50:51;9.30;99.90
11736;DHT22;5924;51.398;7.088;2024-02-04T02:53:17;9.40;99.90
11736;DHT22;5924;51.398;7.088;2024-02-04T02:55:45;9.40;99.90
11736;DHT22;5924;51.398;7.088;2024-02-04T02:58:12;9.40;99.90
11736;DHT22;5924;51.398;7.088;2024-02-04T03:00:38;9.40;99.90
11736;DHT22;5924;51.398;7.088;2024-02-04T03:03:03;9.30;99.90
11736;DHT22;5924;51.398;7.088;2024-02-04T03:05:29;9.40;99.90
11736;DHT22;5924;51.398;7.088;2024-02-04T03:07:55;9.40;99.90
11736;DHT22;5924;51.398;7.088;2024-02-04T03:10:21;9.40;99.90
11736;DHT22;5924;51.398;7.088;2024-02-04T03:12:46;9.40;99.90
11736;DHT22;5924;51.398;7.088;2024-02-04T03:15:12;8.90;99.90
11736;DHT22;5924;51.398;7.088;2024-02-04T03:17:38;9.40;99.90
11736;DHT22;5924;51.398;7.088;2024-02-04T03:20:04;9.00;99.90
11736;DHT22;5924;51.398;7.088;2024-02-04T03:22:30;9.40;99.90
11736;DHT22;5924;51.398;7.088;2024-02-04T03:24:55;9.40;99.90
11736;DHT22;5924;51.398;7.088;2024-02-04T03:27:21;9.40;99.90
11736;DHT22;5924;51.398;7.088;2024-02-04T03:29:47;9.40;99.90
11736;DHT22;5924;51.398;7.088;2024-02-04T03:32:12;9.40;99.90
11736;DHT22;5924;51.398;7.088;2024-02-04T03:34:38;9.40;99.90
11736;DHT22;5924;51.398;7.088;2024-02-04T03:37:06;9.40;99.90
11736;DHT22;5924;51.398;7.088;2024-02-04T03:39:31;9.40;99.90
11736;DHT22;5924;51.398;7.088;2024-02-04T03:41:57;9.40;99.90
11736;DHT22;5924;51.398;7.088;2024-02-04T03:44:23;9.50;99.90
11736;DHT22;5924;51.398;7.088;2024-02-04T03:46:49;9.50;99.90
11736;DHT22;5924;51.398;7.088;2024-02-04T03:49:16;9.40;99.90
11736;DHT22;5924;51.398;7.088;2024-02-04T03:51:41;9.50;99.90
11736;DHT22;5924;51.398;7.088;2024-02-04T03:54:07;9.50;99.90
11736;DHT22;5924;51.398;7.088;2024-02-04T03:56:33;9.50;99.90
11736;DHT22;5924;51.398;7.088;2024-02-04T03:58:58;9.50;99.90
11736;DHT22;5924;51.398;7.088;2024-02-04T04:01:24;9.40;99.90
11736;DHT22;5924;51.398;7.088;2024-02-04T04:03:50;9.40;99.90
11736;DHT22;5924;51.398;7.088;2024-02-04T04:06:16;9.50;99.90
11736;DHT22;5924;51.398;7.088;2024-02-04T04:08:41;9.50;99.90
11736;DHT22;5924;51.398;7.088;2024-02-04T04:11:10;9.50;99.90
11736;DHT22;5924;51.398;7.088;2024-02-04T04:13:37;9.50;99.90
11736;DHT22;5924;51.398;7.088;2024-02-04T04:16:03;9.40;99.90
11736;DHT22;5924;51.398;7.088;2024-02-04T04:18:29;9.40;99.90
11736;DHT22;5924;51.398;7.088;2024-02-04T04:20:56;9.50;99.90
11736;DHT22;5924;51.398;7.088;2024-02-04T04:23:21;9.40;99.90
11736;DHT22;5924;51.398;7.088;2024-02-04T04:25:47;9.40;99.90
11736;DHT22;5924;51.398;7.088;2024-02-04T04:28:13;9.50;99.90
11736;DHT22;5924;51.398;7.088;2024-02-04T04:30:38;9.50;99.90
11736;DHT22;5924;51.398;7.088;2024-02-04T04:33:04;9.50;99.90
11736;DHT22;5924;51.398;7.088;2024-02-04T04:35:30;9.50;99.90
11736;DHT22;5924;51.398;7.088;2024-02-04T04:37:55;9.50;99.90
11736;DHT22;5924;51.398;7.088;2024-02-04T04:40:21;9.50;99.90
11736;DHT22;5924;51.398;7.088;2024-02-04T04:42:46;9.40;99.90
11736;DHT22;5924;51.398;7.088;2024-02-04T04:45:12;9.50;99.90
11736;DHT22;5924;51.398;7.088;2024-02-04T04:47:39;9.40;99.90
11736;DHT22;5924;51.398;7.088;2024-02-04T04:50:05;9.40;99.90
11736;DHT22;5924;51.398;7.088;2024-02-04T04:52:31;9.40;99.90
11736;DHT22;5924;51.398;7.088;2024-02-04T04:54:57;9.40;99.90
11736;DHT22;5924;51.398;7.088;2024-02-04T04:57:23;9.40;99.90
11736;DHT22;5924;51.398;7.088;2024-02-04T04:59:48;9.40;99.90
11736;DHT22;5924;51.398;7.088;2024-02-04T05:02:14;8.30;99.90
11736;DHT22;5924;51.398;7.088;2024-02-04T05:04:43;9.40;99.90
11736;DHT22;5924;51.398;7.088;2024-02-04T05:07:10;9.40;99.90
11736;DHT22;5924;51.398;7.088;2024-02-04T05:09:35;9.40;99.90
11736;DHT22;5924;51.398;7.088;2024-02-04T05:12:02;9.40;99.90
11736;DHT22;5924;51.398;7.088;2024-02-04T05:14:28;9.40;99.90
11736;DHT22;5924;51.398;7.088;2024-02-04T05:16:54;9.40;99.90
11736;DHT22;5924;51.398;7.088;2024-02-04T05:19:19;9.40;99.90
11736;DHT22;5924;51.398;7.088;2024-02-04T05:21:45;9.40;99.90
11736;DHT22;5924;51.398;7.088;2024-02-04T05:24:11;9.40;99.90
11736;DHT22;5924;51.398;7.088;2024-02-04T05:26:36;9.40;99.90
11736;DHT22;5924;51.398;7.088;2024-02-04T05:29:02;9.40;99.90
11736;DHT22;5924;51.398;7.088;2024-02-04T05:31:27;9.40;99.90
11736;DHT22;5924;51.398;7.088;2024-02-04T05:33:53;9.40;99.90
11736;DHT22;5924;51.398;7.088;2024-02-04T05:36:19;9.40;99.90
11736;DHT22;5924;51.398;7.088;2024-02-04T05:38:45;7.80;99.90
11736;DHT22;5924;51.398;7.088;2024-02-04T05:41:11;9.30;99.90
11736;DHT22;5924;51.398;7.088;2024-02-04T05:43:36;9.30;99.90
11736;DHT22;5924;51.398;7.088;2024-02-04T05:46:02;9.30;99.90
11736;DHT22;5924;51.398;7.088;2024-02-04T05:48:28;9.30;99.90
11736;DHT22;5924;51.398;7.088;2024-02-04T05:50:53;9.40;99.90
11736;DHT22;5924;51.398;7.088;2024-02-04T05:53:19;9.30;99.90
11736;DHT22;5924;51.398;7.088;2024-02-04T05:55:46;9.40;99.90
11736;DHT22;5924;51.398;7.088;2024-02-04T05:58:12;9.30;99.90
11736;DHT22;5924;51.398;7.088;2024-02-04T06:00:39;9.30;99.90
11736;DHT22;5924;51.398;7.088;2024-02-04T06:03:05;9.40;99.90
11736;DHT22;5924;51.398;7.088;2024-02-04T06:05:31;9.40;99.90
11736;DHT22;5924;51.398;7.088;2024-02-04T06:07:57;9.40;99.90
11736;DHT22;5924;51.398;7.088;2024-02-04T06:10:22;9.40;99.90
11736;DHT22;5924;51.398;7.088;2024-02-04T06:12:48;9.40;99.90
11736;DHT22;5924;51.398;7.088;2024-02-04T06:15:17;9.40;99.90
11736;DHT22;5924;51.398;7.088;2024-02-04T06:17:43;9.40;99.90
11736;DHT22;5924;51.398;7.088;2024-02-04T06:20:09;9.40;99.90
11736;DHT22;5924;51.398;7.088;2024-02-04T06:22:35;9.40;99.90
11736;DHT22;5924;51.398;7.088;2024-02-04T06:25:02;9.40;99.90
11736;DHT22;5924;51.398;7.088;2024-02-04T06:27:29;9.40;99.90
11736;DHT22;5924;51.398;7.088;2024-02-04T06:29:55;9.40;99.90
11736;DHT22;5924;51.398;7.088;2024-02-04T06:32:21;9.40;99.90
11736;DHT22;5924;51.398;7.088;2024-02-04T06:34:46;9.40;99.90
11736;DHT22;5924;51.398;7.088;2024-02-04T06:37:12;9.40;99.90
11736;DHT22;5924;51.398;7.088;2024-02-04T06:39:38;9.40;99.90
11736;DHT22;5924;51.398;7.088;2024-02-04T06:42:04;9.40;99.90
11736;DHT22;5924;51.398;7.088;2024-02-04T06:44:30;9.40;99.90
11736;DHT22;5924;51.398;7.088;2024-02-04T06:46:55;9.40;99.90
11736;DHT22;5924;51.398;7.088;2024-02-04T06:49:21;9.40;99.90
11736;DHT22;5924;51.398;7.088;2024-02-04T06:51:47;9.40;99.90
11736;DHT22;5924;51.398;7.088;2024-02-04T06:54:13;9.40;99.90
11736;DHT22;5924;51.398;7.088;2024-02-04T06:56:39;9.40;99.90
11736;DHT22;5924;51.398;7.088;2024-02-04T06:59:05;9.40;99.90
11736;DHT22;5924;51.398;7.088;2024-02-04T07:01:30;9.40;99.90
11736;DHT22;5924;51.398;7.088;2024-02-04T07:03:56;9.40;99.90
11736;DHT22;5924;51.398;7.088;2024-02-04T07:06:22;9.40;99.90
11736;DHT22;5924;51.398;7.088;2024-02-04T07:08:48;9.40;99.90
11736;DHT22;5924;51.398;7.088;2024-02-04T07:11:13;9.40;99.90
11736;DHT22;5924;51.398;7.088;2024-02-04T07:13:39;9.40;99.90
11736;DHT22;5924;51.398;7.088;2024-02-04T07:16:05;9.40;99.90
11736;DHT22;5924;51.398;7.088;2024-02-04T07:18:30;9.40;99.90
11736;DHT22;5924;51.398;7.088;2024-02-04T07:20:56;9.40;99.90
11736;DHT22;5924;51.398;7.088;2024-02-04T07:23:22;9.40;99.90
11736;DHT22;5924;51.398;7.088;2024-02-04T07:25:48;9.40;99.90
11736;DHT22;5924;51.398;7.088;2024-02-04T07:28:14;9.50;99.90
11736;DHT22;5924;51.398;7.088;2024-02-04T07:30:40;9.50;99.90
11736;DHT22;5924;51.398;7.088;2024-02-04T07:33:05;9.50;99.90
11736;DHT22;5924;51.398;7.088;2024-02-04T07:35:31;9.40;99.90
11736;DHT22;5924;51.398;7.088;2024-02-04T07:37:57;9.40;99.90
11736;DHT22;5924;51.398;7.088;2024-02-04T07:40:23;9.40;99.90
11736;DHT22;5924;51.398;7.088;2024-02-04T07:42:49;9.40;99.90
11736;DHT22;5924;51.398;7.088;2024-02-04T07:45:14;9.40;99.90
11736;DHT22;5924;51.398;7.088;2024-02-04T07:47:40;9.40;99.90
11736;DHT22;5924;51.398;7.088;2024-02-04T07:50:07;9.40;99.90
11736;DHT22;5924;51.398;7.088;2024-02-04T07:52:33;9.40;99.90
11736;DHT22;5924;51.398;7.088;2024-02-04T07:54:58;9.40;99.90
11736;DHT22;5924;51.398;7.088;2024-02-04T07:57:24;9.40;99.90
11736;DHT22;5924;51.398;7.088;2024-02-04T07:59:50;9.40;99.90
11736;DHT22;5924;51.398;7.088;2024-02-04T08:02:16;9.50;99.90
11736;DHT22;5924;51.398;7.088;2024-02-04T08:04:42;9.50;99.90
11736;DHT22;5924;51.398;7.088;2024-02-04T08:07:08;9.50;99.90
11736;DHT22;5924;51.398;7.088;2024-02-04T08:09:33;9.50;99.90
11736;DHT22;5924;51.398;7.088;2024-02-04T08:11:59;9.50;99.90
11736;DHT22;5924;51.398;7.088;2024-02-04T08:14:25;9.50;99.90
11736;DHT22;5924;51.398;7.088;2024-02-04T08:16:50;9.40;99.90
11736;DHT22;5924;51.398;7.088;2024-02-04T08:19:16;9.40;99.90
11736;DHT22;5924;51.398;7.088;2024-02-04T08:21:42;9.50;99.90
11736;DHT22;5924;51.398;7.088;2024-02-04T08:24:08;9.40;99.90
11736;DHT22;5924;51.398;7.088;2024-02-04T08:26:34;9.40;99.90
11736;DHT22;5924;51.398;7.088;2024-02-04T08:29:00;9.80;99.90
11736;DHT22;5924;51.398;7.088;2024-02-04T08:31:26;9.60;99.90
11736;DHT22;5924;51.398;7.088;2024-02-04T08:33:51;9.30;99.90
11736;DHT22;5924;51.398;7.088;2024-02-04T08:36:18;9.30;99.90
11736;DHT22;5924;51.398;7.088;2024-02-04T08:38:44;9.30;99.90
11736;DHT22;5924;51.398;7.088;2024-02-04T08:41:10;9.30;99.90
11736;DHT22;5924;51.398;7.088;2024-02-04T08:43:36;9.40;99.90
11736;DHT22;5924;51.398;7.088;2024-02-04T08:46:01;9.40;99.90
11736;DHT22;5924;51.398;7.088;2024-02-04T08:48:27;9.40;99.90
11736;DHT22;5924;51.398;7.088;2024-02-04T08:50:53;9.40;99.90
11736;DHT22;5924;51.398;7.088;2024-02-04T08:53:22;9.40;99.90
11736;DHT22;5924;51.398;7.088;2024-02-04T08:55:49;9.40;99.90
11736;DHT22;5924;51.398;7.088;2024-02-04T08:58:14;9.40;99.90
11736;DHT22;5924;51.398;7.088;2024-02-04T09:00:40;9.40;99.90
11736;DHT22;5924;51.398;7.088;2024-02-04T09:03:06;9.40;99.90
11736;DHT22;5924;51.398;7.088;2024-02-04T09:05:31;9.40;99.90
11736;DHT22;5924;51.398;7.088;2024-02-04T09:07:57;9.40;99.90
11736;DHT22;5924;51.398;7.088;2024-02-04T09:10:23;9.40;99.90
11736;DHT22;5924;51.398;7.088;2024-02-04T09:12:48;9.40;99.90
11736;DHT22;5924;51.398;7.088;2024-02-04T09:15:14;9.40;99.90
11736;DHT22;5924;51.398;7.088;2024-02-04T09:17:40;9.40;99.90
11736;DHT22;5924;51.398;7.088;2024-02-04T09:20:06;9.50;99.90
11736;DHT22;5924;51.398;7.088;2024-02-04T09:22:33;9.50;99.90
11736;DHT22;5924;51.398;7.088;2024-02-04T09:24:58;9.50;99.90
11736;DHT22;5924;51.398;7.088;2024-02-04T09:27:24;9.50;99.90
11736;DHT22;5924;51.398;7.088;2024-02-04T09:29:51;9.50;99.90
11736;DHT22;5924;51.398;7.088;2024-02-04T09:32:17;9.50;99.90
11736;DHT22;5924;51.398;7.088;2024-02-04T09:34:42;9.50;99.90
11736;DHT22;5924;51.398;7.088;2024-02-04T09:37:08;7.80;99.90
11736;DHT22;5924;51.398;7.088;2024-02-04T09:39:34;9.60;99.90
11736;DHT22;5924;51.398;7.088;2024-02-04T09:42:01;9.50;99.90
11736;DHT22;5924;51.398;7.088;2024-02-04T09:44:27;9.50;99.90
11736;DHT22;5924;51.398;7.088;2024-02-04T09:46:53;9.50;99.90
11736;DHT22;5924;51.398;7.088;2024-02-04T09:49:19;9.50;99.90
11736;DHT22;5924;51.398;7.088;2024-02-04T09:51:46;9.60;99.90
11736;DHT22;5924;51.398;7.088;2024-02-04T09:54:14;9.60;99.90
11736;DHT22;5924;51.398;7.088;2024-02-04T09:56:42;9.60;99.90
11736;DHT22;5924;51.398;7.088;2024-02-04T09:59:08;9.60;99.90
11736;DHT22;5924;51.398;7.088;2024-02-04T10:01:35;9.60;99.90
11736;DHT22;5924;51.398;7.088;2024-02-04T10:04:01;9.60;99.90
11736;DHT22;5924;51.398;7.088;2024-02-04T10:06:27;9.70;99.90
11736;DHT22;5924;51.398;7.088;2024-02-04T10:08:53;9.60;99.90
11736;DHT22;5924;51.398;7.088;2024-02-04T10:11:19;9.60;99.90
11736;DHT22;5924;51.398;7.088;2024-02-04T10:13:48;9.00;99.90
11736;DHT22;5924;51.398;7.088;2024-02-04T10:16:16;9.60;99.90
11736;DHT22;5924;51.398;7.088;2024-02-04T10:18:46;9.60;99.90
11736;DHT22;5924;51.398;7.088;2024-02-04T10:21:19;9.60;99.90
11736;DHT22;5924;51.398;7.088;2024-02-04T10:23:48;9.60;99.90
11736;DHT22;5924;51.398;7.088;2024-02-04T10:26:14;9.60;99.90
11736;DHT22;5924;51.398;7.088;2024-02-04T10:28:40;9.60;99.90
11736;DHT22;5924;51.398;7.088;2024-02-04T10:31:08;9.60;99.90
11736;DHT22;5924;51.398;7.088;2024-02-04T10:33:35;9.70;99.90
11736;DHT22;5924;51.398;7.088;2024-02-04T10:36:01;9.80;99.90
11736;DHT22;5924;51.398;7.088;2024-02-04T10:38:27;9.90;99.90
11736;DHT22;5924;51.398;7.088;2024-02-04T10:40:54;9.90;99.90
11736;DHT22;5924;51.398;7.088;2024-02-04T10:43:21;9.90;99.90
11736;DHT22;5924;51.398;7.088;2024-02-04T10:45:47;10.10;99.90
11736;DHT22;5924;51.398;7.088;2024-02-04T10:48:15;10.10;99.90
11736;DHT22;5924;51.398;7.088;2024-02-04T10:50:46;10.10;99.90
11736;DHT22;5924;51.398;7.088;2024-02-04T10:53:14;10.10;99.90
11736;DHT22;5924;51.398;7.088;2024-02-04T10:55:43;11.30;99.90
11736;DHT22;5924;51.398;7.088;2024-02-04T10:58:13;10.10;99.90
11736;DHT22;5924;51.398;7.088;2024-02-04T11:00:42;10.20;99.90
11736;DHT22;5924;51.398;7.088;2024-02-04T11:03:08;10.20;99.90
11736;DHT22;5924;51.398;7.088;2024-02-04T11:05:34;10.30;99.90
11736;DHT22;5924;51.398;7.088;2024-02-04T11:08:03;10.30;99.90
11736;DHT22;5924;51.398;7.088;2024-02-04T11:10:30;10.30;99.90
11736;DHT22;5924;51.398;7.088;2024-02-04T11:12:58;10.30;99.90
11736;DHT22;5924;51.398;7.088;2024-02-04T11:15:28;10.30;99.90
11736;DHT22;5924;51.398;7.088;2024-02-04T11:25:58;10.00;99.90
11736;DHT22;5924;51.398;7.088;2024-02-04T11:28:24;10.00;99.90
11736;DHT22;5924;51.398;7.088;2024-02-04T11:30:51;9.90;99.90
11736;DHT22;5924;51.398;7.088;2024-02-04T11:33:21;9.90;99.90
11736;DHT22;5924;51.398;7.088;2024-02-04T11:35:47;9.90;99.90
11736;DHT22;5924;51.398;7.088;2024-02-04T11:38:17;9.90;99.90
11736;DHT22;5924;51.398;7.088;2024-02-04T11:40:45;9.90;99.90
11736;DHT22;5924;51.398;7.088;2024-02-04T11:43:11;9.90;99.90
11736;DHT22;5924;51.398;7.088;2024-02-04T11:45:41;9.90;99.90
11736;DHT22;5924;51.398;7.088;2024-02-04T11:48:10;9.90;99.90
11736;DHT22;5924;51.398;7.088;2024-02-04T11:50:37;9.90;99.90
11736;DHT22;5924;51.398;7.088;2024-02-04T11:53:11;9.90;99.90
11736;DHT22;5924;51.398;7.088;2024-02-04T11:55:39;10.00;99.90
11736;DHT22;5924;51.398;7.088;2024-02-04T11:58:06;10.00;99.90
11736;DHT22;5924;51.398;7.088;2024-02-04T12:00:43;10.00;99.90
11736;DHT22;5924;51.398;7.088;2024-02-04T12:03:09;10.00;99.90
11736;DHT22;5924;51.398;7.088;2024-02-04T12:05:36;10.00;99.90
11736;DHT22;5924;51.398;7.088;2024-02-04T12:08:06;10.00;99.90
11736;DHT22;5924;51.398;7.088;2024-02-04T12:10:33;10.00;99.90
11736;DHT22;5924;51.398;7.088;2024-02-04T12:13:02;10.00;99.90
11736;DHT22;5924;51.398;7.088;2024-02-04T12:15:28;10.00;99.90
11736;DHT22;5924;51.398;7.088;2024-02-04T12:17:55;10.00;99.90
11736;DHT22;5924;51.398;7.088;2024-02-04T12:20:21;10.00;99.90
11736;DHT22;5924;51.398;7.088;2024-02-04T12:22:47;10.00;99.90
11736;DHT22;5924;51.398;7.088;2024-02-04T12:25:14;10.00;99.90
11736;DHT22;5924;51.398;7.088;2024-02-04T12:27:40;10.00;99.90
11736;DHT22;5924;51.398;7.088;2024-02-04T12:30:06;10.90;99.90
11736;DHT22;5924;51.398;7.088;2024-02-04T12:32:33;10.00;99.90
11736;DHT22;5924;51.398;7.088;2024-02-04T12:34:58;10.00;99.90
11736;DHT22;5924;51.398;7.088;2024-02-04T12:37:24;10.00;99.90
11736;DHT22;5924;51.398;7.088;2024-02-04T12:39:52;10.00;99.90
11736;DHT22;5924;51.398;7.088;2024-02-04T12:42:17;10.00;99.90
11736;DHT22;5924;51.398;7.088;2024-02-04T12:44:47;10.00;99.90
11736;DHT22;5924;51.398;7.088;2024-02-04T12:47:13;10.00;99.90
11736;DHT22;5924;51.398;7.088;2024-02-04T12:49:40;10.00;99.90
11736;DHT22;5924;51.398;7.088;2024-02-04T12:52:06;10.00;99.90
11736;DHT22;5924;51.398;7.088;2024-02-04T12:54:45;10.00;99.90
11736;DHT22;5924;51.398;7.088;2024-02-04T12:57:21;10.00;99.90
11736;DHT22;5924;51.398;7.088;2024-02-04T12:59:47;10.00;99.90
11736;DHT22;5924;51.398;7.088;2024-02-04T13:02:14;10.10;99.90
11736;DHT22;5924;51.398;7.088;2024-02-04T13:04:41;10.10;99.90
11736;DHT22;5924;51.398;7.088;2024-02-04T13:07:10;10.10;99.90
11736;DHT22;5924;51.398;7.088;2024-02-04T13:09:40;10.00;99.90
11736;DHT22;5924;51.398;7.088;2024-02-04T13:12:07;10.00;99.90
11736;DHT22;5924;51.398;7.088;2024-02-04T13:14:34;10.00;99.90
11736;DHT22;5924;51.398;7.088;2024-02-04T13:17:00;10.00;99.90
11736;DHT22;5924;51.398;7.088;2024-02-04T13:19:32;10.00;99.90
11736;DHT22;5924;51.398;7.088;2024-02-04T13:21:58;10.00;99.90
11736;DHT22;5924;51.398;7.088;2024-02-04T13:24:24;10.00;99.90
11736;DHT22;5924;51.398;7.088;2024-02-04T13:26:50;10.00;99.90
11736;DHT22;5924;51.398;7.088;2024-02-04T13:29:15;10.00;99.90
11736;DHT22;5924;51.398;7.088;2024-02-04T13:31:41;10.00;99.90
11736;DHT22;5924;51.398;7.088;2024-02-04T13:34:07;10.00;99.90
11736;DHT22;5924;51.398;7.088;2024-02-04T13:36:32;10.00;99.90
11736;DHT22;5924;51.398;7.088;2024-02-04T13:38:58;11.80;99.90
11736;DHT22;5924;51.398;7.088;2024-02-04T13:41:24;10.00;99.90
11736;DHT22;5924;51.398;7.088;2024-02-04T13:43:49;10.00;99.90
11736;DHT22;5924;51.398;7.088;2024-02-04T13:46:16;10.00;99.90
11736;DHT22;5924;51.398;7.088;2024-02-04T13:48:41;9.90;99.90
11736;DHT22;5924;51.398;7.088;2024-02-04T13:51:07;10.00;99.90
11736;DHT22;5924;51.398;7.088;2024-02-04T13:53:33;10.00;99.90
11736;DHT22;5924;51.398;7.088;2024-02-04T13:56:01;10.00;99.90
11736;DHT22;5924;51.398;7.088;2024-02-04T13:58:27;10.00;99.90
11736;DHT22;5924;51.398;7.088;2024-02-04T14:00:52;10.00;99.90
11736;DHT22;5924;51.398;7.088;2024-02-04T14:03:18;10.00;99.90
11736;DHT22;5924;51.398;7.088;2024-02-04T14:05:44;10.00;99.90
11736;DHT22;5924;51.398;7.088;2024-02-04T14:08:10;10.00;99.90
11736;DHT22;5924;51.398;7.088;2024-02-04T14:10:36;10.00;99.90
11736;DHT22;5924;51.398;7.088;2024-02-04T14:13:03;10.00;99.90
11736;DHT22;5924;51.398;7.088;2024-02-04T14:15:30;10.00;99.90
11736;DHT22;5924;51.398;7.088;2024-02-04T14:17:57;9.90;99.90
11736;DHT22;5924;51.398;7.088;2024-02-04T14:20:22;9.90;99.90
11736;DHT22;5924;51.398;7.088;2024-02-04T14:22:49;10.00;99.90
11736;DHT22;5924;51.398;7.088;2024-02-04T14:25:16;10.00;99.90
11736;DHT22;5924;51.398;7.088;2024-02-04T14:27:42;9.90;99.90
11736;DHT22;5924;51.398;7.088;2024-02-04T14:30:08;10.00;99.90
11736;DHT22;5924;51.398;7.088;2024-02-04T14:32:34;9.90;99.90
11736;DHT22;5924;51.398;7.088;2024-02-04T14:34:59;9.90;99.90
11736;DHT22;5924;51.398;7.088;2024-02-04T14:37:25;9.90;99.90
11736;DHT22;5924;51.398;7.088;2024-02-04T14:39:51;9.90;99.90
11736;DHT22;5924;51.398;7.088;2024-02-04T14:42:17;9.90;99.90
11736;DHT22;5924;51.398;7.088;2024-02-04T14:44:44;9.90;99.90
11736;DHT22;5924;51.398;7.088;2024-02-04T14:47:09;11.10;99.90
11736;DHT22;5924;51.398;7.088;2024-02-04T14:49:36;9.90;99.90
11736;DHT22;5924;51.398;7.088;2024-02-04T14:52:03;9.90;99.90
11736;DHT22;5924;51.398;7.088;2024-02-04T14:54:28;9.90;99.90
11736;DHT22;5924;51.398;7.088;2024-02-04T14:56:54;10.70;99.90
11736;DHT22;5924;51.398;7.088;2024-02-04T14:59:20;9.90;99.90
11736;DHT22;5924;51.398;7.088;2024-02-04T15:01:46;10.00;99.90
11736;DHT22;5924;51.398;7.088;2024-02-04T15:04:12;9.90;99.90
11736;DHT22;5924;51.398;7.088;2024-02-04T15:06:39;9.90;99.90
11736;DHT22;5924;51.398;7.088;2024-02-04T15:09:05;9.90;99.90
11736;DHT22;5924;51.398;7.088;2024-02-04T15:11:31;9.90;99.90
11736;DHT22;5924;51.398;7.088;2024-02-04T15:13:58;9.90;99.90
11736;DHT22;5924;51.398;7.088;2024-02-04T15:16:24;9.90;99.90
11736;DHT22;5924;51.398;7.088;2024-02-04T15:18:50;9.90;99.90
11736;DHT22;5924;51.398;7.088;2024-02-04T15:21:16;11.40;99.90
11736;DHT22;5924;51.398;7.088;2024-02-04T15:23:42;10.20;99.90
11736;DHT22;5924;51.398;7.088;2024-02-04T15:26:10;9.90;99.90
11736;DHT22;5924;51.398;7.088;2024-02-04T15:28:37;9.80;99.90
11736;DHT22;5924;51.398;7.088;2024-02-04T15:31:04;9.80;99.90
11736;DHT22;5924;51.398;7.088;2024-02-04T15:33:30;9.80;99.90
11736;DHT22;5924;51.398;7.088;2024-02-04T15:35:56;9.80;99.90
11736;DHT22;5924;51.398;7.088;2024-02-04T15:38:22;9.80;99.90
11736;DHT22;5924;51.398;7.088;2024-02-04T15:40:48;9.80;99.90
11736;DHT22;5924;51.398;7.088;2024-02-04T15:43:14;9.80;99.90
11736;DHT22;5924;51.398;7.088;2024-02-04T15:45:40;9.80;99.90
11736;DHT22;5924;51.398;7.088;2024-02-04T15:48:06;9.80;99.90
11736;DHT22;5924;51.398;7.088;2024-02-04T15:50:33;9.80;99.90
11736;DHT22;5924;51.398;7.088;2024-02-04T15:52:59;9.80;99.90
11736;DHT22;5924;51.398;7.088;2024-02-04T15:55:25;9.80;99.90
11736;DHT22;5924;51.398;7.088;2024-02-04T15:57:52;9.80;99.90
11736;DHT22;5924;51.398;7.088;2024-02-04T16:00:20;9.80;99.90
11736;DHT22;5924;51.398;7.088;2024-02-04T16:02:53;9.80;99.90
11736;DHT22;5924;51.398;7.088;2024-02-04T16:05:20;9.70;99.90